createdAt,value
2022-12-01T00:00:40.051Z,11.20
2022-12-01T00:03:29.474Z,10.10
2022-12-01T00:06:18.067Z,12.00
2022-12-01T00:09:23.861Z,11.40
2022-12-01T00:12:10.854Z,9.90
2022-12-01T00:15:00.955Z,15.10
2022-12-01T00:17:48.473Z,8.70
2022-12-01T00:20:35.541Z,13.40
2022-12-01T00:23:22.643Z,13.50
2022-12-01T00:26:09.306Z,11.80
2022-12-01T00:28:57.231Z,13.50
2022-12-01T00:31:44.061Z,13.50
2022-12-01T00:34:30.764Z,11.50
2022-12-01T00:37:17.491Z,10.00
2022-12-01T00:40:04.296Z,8.60
2022-12-01T00:42:51.289Z,11.90
2022-12-01T00:45:37.896Z,12.90
2022-12-01T00:48:24.783Z,14.90
2022-12-01T00:51:11.470Z,15.10
2022-12-01T00:53:58.263Z,15.40
2022-12-01T00:56:45.139Z,15.70
2022-12-01T00:59:32.295Z,13.70
2022-12-01T01:02:19.194Z,13.10
2022-12-01T01:05:06.876Z,14.90
2022-12-01T01:07:53.874Z,14.50
2022-12-01T01:10:41.892Z,14.90
2022-12-01T01:13:29.262Z,12.80
2022-12-01T01:16:20.440Z,13.50
2022-12-01T01:19:07.431Z,12.80
2022-12-01T01:21:54.137Z,11.60
2022-12-01T01:24:41.254Z,16.30
2022-12-01T01:27:28.138Z,11.50
2022-12-01T01:30:15.356Z,12.70
2022-12-01T01:33:02.287Z,10.90
2022-12-01T01:35:49.150Z,12.50
2022-12-01T01:38:36.396Z,12.00
2022-12-01T01:41:23.699Z,15.20
2022-12-01T01:44:29.544Z,11.50
2022-12-01T01:47:18.759Z,11.20
2022-12-01T01:50:09.286Z,12.60
2022-12-01T01:52:59.439Z,12.30
2022-12-01T01:55:46.227Z,12.80
2022-12-01T01:58:33.943Z,13.60
2022-12-01T02:01:50.855Z,11.00
2022-12-01T02:04:51.209Z,12.80
2022-12-01T02:07:43.243Z,10.60
2022-12-01T02:11:01.360Z,12.50
2022-12-01T02:14:05.970Z,13.00
2022-12-01T02:17:11.287Z,12.50
2022-12-01T02:20:15.225Z,10.50
2022-12-01T02:23:53.449Z,14.30
2022-12-01T02:26:59.568Z,11.70
2022-12-01T02:30:13.251Z,12.40
2022-12-01T02:33:11.466Z,13.20
2022-12-01T02:37:42.546Z,11.10
2022-12-01T02:40:39.590Z,11.20
2022-12-01T02:43:38.098Z,11.80
2022-12-01T02:46:36.579Z,11.40
2022-12-01T02:49:30.745Z,11.60
2022-12-01T02:52:27.161Z,9.90
2022-12-01T02:55:19.136Z,12.00
2022-12-01T02:58:13.114Z,11.70
2022-12-01T03:01:27.449Z,11.60
2022-12-01T03:06:55.387Z,11.50
2022-12-01T03:09:56.843Z,13.50
2022-12-01T03:13:00.030Z,9.10
2022-12-01T03:15:56.057Z,12.40
2022-12-01T03:18:50.929Z,10.20
2022-12-01T03:21:46.570Z,11.90
2022-12-01T03:24:39.712Z,11.60
2022-12-01T03:27:33.981Z,9.80
2022-12-01T03:30:26.739Z,11.30
2022-12-01T03:34:02.783Z,11.90
2022-12-01T03:36:56.128Z,10.40
2022-12-01T03:39:48.128Z,9.90
2022-12-01T03:42:41.413Z,10.60
2022-12-01T03:45:50.593Z,12.40
2022-12-01T03:48:41.473Z,9.10
2022-12-01T03:51:37.491Z,10.90
2022-12-01T03:54:28.132Z,10.90
2022-12-01T03:57:23.289Z,12.20
2022-12-01T04:00:14.940Z,8.60
2022-12-01T04:03:15.893Z,9.60
2022-12-01T04:06:09.941Z,8.90
2022-12-01T04:09:00.458Z,8.20
2022-12-01T04:12:09.783Z,8.60
2022-12-01T04:15:01.851Z,9.70
2022-12-01T04:17:52.267Z,8.10
2022-12-01T04:20:42.909Z,7.30
2022-12-01T04:23:51.995Z,9.20
2022-12-01T04:26:42.904Z,10.50
2022-12-01T04:29:28.303Z,9.40
2022-12-01T04:32:19.102Z,7.70
2022-12-01T04:35:10.183Z,11.00
2022-12-01T04:38:00.317Z,10.40
2022-12-01T04:40:50.884Z,10.30
2022-12-01T04:43:41.612Z,9.70
2022-12-01T04:48:10.304Z,8.90
2022-12-01T04:51:02.658Z,10.50
2022-12-01T04:53:54.577Z,8.80
2022-12-01T04:59:38.905Z,12.00
2022-12-01T05:02:30.691Z,8.20
2022-12-01T05:05:23.700Z,9.70
2022-12-01T05:08:15.435Z,11.30
2022-12-01T05:11:12.649Z,11.10
2022-12-01T05:14:04.561Z,8.50
2022-12-01T05:16:58.373Z,9.60
2022-12-01T05:20:08.848Z,9.10
2022-12-01T05:23:05.684Z,8.10
2022-12-01T05:28:42.644Z,8.40
2022-12-01T05:31:58.230Z,12.20
2022-12-01T05:34:53.741Z,10.70
2022-12-01T05:37:45.272Z,8.20
2022-12-01T05:40:37.332Z,9.30
2022-12-01T05:43:29.959Z,10.20
2022-12-01T05:48:58.096Z,10.30
2022-12-01T05:53:04.737Z,8.80
2022-12-01T05:56:40.926Z,7.40
2022-12-01T05:59:32.823Z,6.80
2022-12-01T06:02:27.032Z,7.30
2022-12-01T06:05:22.838Z,7.40
2022-12-01T06:10:51.372Z,10.10
2022-12-01T06:14:31.564Z,9.40
2022-12-01T06:17:23.180Z,10.80
2022-12-01T06:20:15.024Z,8.60
2022-12-01T06:23:07.423Z,11.10
2022-12-01T06:25:59.089Z,8.30
2022-12-01T06:28:50.452Z,9.30
2022-12-01T06:31:37.114Z,10.40
2022-12-01T06:34:29.036Z,11.10
2022-12-01T06:37:20.729Z,9.30
2022-12-01T06:40:12.533Z,8.30
2022-12-01T06:43:04.514Z,8.50
2022-12-01T06:46:01.272Z,9.00
2022-12-01T06:48:53.902Z,8.10
2022-12-01T06:51:45.508Z,7.50
2022-12-01T06:54:37.685Z,8.70
2022-12-01T07:00:21.312Z,8.70
2022-12-01T07:03:13.502Z,8.30
2022-12-01T07:06:05.387Z,7.20
2022-12-01T07:08:57.205Z,8.00
2022-12-01T07:11:49.043Z,7.30
2022-12-01T07:14:42.664Z,10.30
2022-12-01T07:17:34.818Z,10.60
2022-12-01T07:23:28.673Z,8.80
2022-12-01T07:26:17.395Z,9.10
2022-12-01T07:29:10.457Z,7.10
2022-12-01T07:32:02.216Z,9.80
2022-12-01T07:34:54.054Z,8.80
2022-12-01T07:37:57.057Z,9.00
2022-12-01T07:40:48.819Z,8.40
2022-12-01T07:43:40.638Z,9.10
2022-12-01T07:46:32.687Z,10.10
2022-12-01T07:49:24.231Z,10.60
2022-12-01T07:52:15.654Z,9.10
2022-12-01T07:55:07.762Z,11.10
2022-12-01T07:58:00.632Z,7.50
2022-12-01T08:00:52.667Z,8.20
2022-12-01T08:03:39.582Z,10.20
2022-12-01T08:06:31.407Z,8.50
2022-12-01T08:09:23.840Z,11.10
2022-12-01T08:12:15.825Z,11.60
2022-12-01T08:15:07.800Z,8.90
2022-12-01T08:18:00.706Z,12.10
2022-12-01T08:20:56.599Z,11.40
2022-12-01T08:23:48.692Z,14.80
2022-12-01T08:29:27.142Z,13.50
2022-12-01T08:32:19.038Z,8.70
2022-12-01T08:35:11.603Z,8.50
2022-12-01T08:38:04.014Z,9.90
2022-12-01T08:42:31.217Z,12.50
2022-12-01T08:45:23.231Z,12.50
2022-12-01T08:48:10.044Z,10.00
2022-12-01T08:51:12.149Z,9.10
2022-12-01T08:54:04.281Z,10.70
2022-12-01T08:56:57.385Z,13.30
2022-12-01T08:59:51.936Z,8.60
2022-12-01T09:02:43.842Z,10.20
2022-12-01T09:05:35.967Z,9.90
2022-12-01T09:08:31.272Z,8.60
2022-12-01T09:11:23.639Z,8.50
2022-12-01T09:14:11.055Z,9.20
2022-12-01T09:17:03.196Z,11.90
2022-12-01T09:19:54.990Z,11.60
2022-12-01T09:22:47.022Z,8.50
2022-12-01T09:25:33.787Z,13.50
2022-12-01T09:28:20.686Z,10.80
2022-12-01T09:31:13.359Z,9.10
2022-12-01T09:34:06.332Z,11.70
2022-12-01T09:36:58.640Z,10.90
2022-12-01T09:39:50.609Z,10.70
2022-12-01T09:44:14.002Z,10.50
2022-12-01T09:47:09.110Z,10.40
2022-12-01T09:50:03.244Z,10.00
2022-12-01T09:52:57.796Z,8.60
2022-12-01T09:55:50.173Z,8.20
2022-12-01T10:01:25.793Z,9.00
2022-12-01T10:04:56.977Z,8.70
2022-12-01T10:07:48.907Z,7.50
2022-12-01T10:10:42.985Z,8.50
2022-12-01T10:13:34.676Z,6.80
2022-12-01T10:19:01.687Z,7.30
2022-12-01T10:22:05.275Z,7.30
2022-12-01T10:25:06.385Z,6.90
2022-12-01T10:28:16.938Z,7.80
2022-12-01T10:31:07.168Z,6.90
2022-12-01T10:33:59.183Z,5.60
2022-12-01T10:36:47.169Z,7.80
2022-12-01T10:39:36.863Z,8.20
2022-12-01T10:42:36.941Z,6.30
2022-12-01T10:45:30.006Z,7.90
2022-12-01T10:48:25.801Z,5.70
2022-12-01T10:51:18.046Z,6.60
2022-12-01T10:57:05.965Z,6.50
2022-12-01T11:00:01.836Z,7.50
2022-12-01T11:02:54.401Z,6.90
2022-12-01T11:05:52.374Z,6.60
2022-12-01T11:08:52.396Z,4.50
2022-12-01T11:11:58.916Z,6.20
2022-12-01T11:14:55.570Z,6.80
2022-12-01T11:17:47.680Z,6.60
2022-12-01T11:26:25.908Z,6.70
2022-12-01T11:32:23.981Z,5.40
2022-12-01T11:35:18.049Z,6.90
2022-12-01T11:38:35.136Z,6.60
2022-12-01T11:41:29.540Z,5.70
2022-12-01T11:44:49.719Z,5.70
2022-12-01T11:47:33.486Z,5.90
2022-12-01T11:50:26.783Z,6.00
2022-12-01T11:53:33.988Z,6.00
2022-12-01T11:56:28.892Z,6.00
2022-12-01T11:59:23.644Z,6.50
2022-12-01T12:02:42.220Z,6.70
2022-12-01T12:05:37.300Z,7.40
2022-12-01T12:08:38.511Z,5.40
2022-12-01T12:11:36.383Z,6.60
2022-12-01T12:14:40.191Z,6.50
2022-12-01T12:17:52.931Z,4.00
2022-12-01T12:23:48.624Z,7.10
2022-12-01T12:26:50.035Z,4.50
2022-12-01T12:29:43.295Z,5.00
2022-12-01T12:32:47.274Z,6.30
2022-12-01T12:35:56.739Z,6.00
2022-12-01T12:38:46.708Z,6.20
2022-12-01T12:41:38.950Z,6.00
2022-12-01T12:49:03.571Z,8.80
2022-12-01T12:51:50.717Z,5.20
2022-12-01T12:54:53.171Z,3.90
2022-12-01T12:57:55.220Z,4.20
2022-12-01T13:00:51.337Z,4.20
2022-12-01T13:03:52.178Z,4.80
2022-12-01T13:06:48.777Z,5.40
2022-12-01T13:09:46.967Z,5.30
2022-12-01T13:12:40.709Z,5.40
2022-12-01T13:15:27.437Z,4.90
2022-12-01T13:18:26.950Z,6.20
2022-12-01T13:21:17.274Z,4.90
2022-12-01T13:24:18.521Z,5.50
2022-12-01T13:29:52.036Z,5.40
2022-12-01T13:32:44.172Z,5.60
2022-12-01T13:35:37.784Z,6.70
2022-12-01T13:38:31.015Z,4.30
2022-12-01T13:41:24.707Z,6.10
2022-12-01T13:44:22.537Z,6.20
2022-12-01T13:47:12.451Z,5.80
2022-12-01T13:50:23.072Z,5.80
2022-12-01T13:53:18.314Z,5.90
2022-12-01T13:56:30.450Z,6.60
2022-12-01T13:59:38.066Z,6.00
2022-12-01T14:02:30.970Z,5.20
2022-12-01T14:06:50.205Z,8.00
2022-12-01T14:09:42.026Z,8.40
2022-12-01T14:15:02.195Z,9.50
2022-12-01T14:18:00.367Z,8.50
2022-12-01T14:20:51.160Z,6.20
2022-12-01T14:23:48.039Z,9.70
2022-12-01T14:29:07.212Z,6.90
2022-12-01T14:32:03.933Z,5.80
2022-12-01T14:34:51.639Z,8.10
2022-12-01T14:37:46.084Z,6.80
2022-12-01T14:40:33.423Z,8.60
2022-12-01T14:43:38.922Z,8.20
2022-12-01T14:46:26.785Z,7.00
2022-12-01T14:49:21.961Z,10.40
2022-12-01T14:52:17.758Z,9.20
2022-12-01T14:55:14.013Z,10.70
2022-12-01T14:58:07.576Z,7.50
2022-12-01T15:01:02.914Z,8.00
2022-12-01T15:03:57.201Z,8.10
2022-12-01T15:06:44.466Z,8.70
2022-12-01T15:09:34.475Z,11.00
2022-12-01T15:12:27.808Z,10.20
2022-12-01T15:15:19.752Z,9.60
2022-12-01T15:18:30.803Z,9.80
2022-12-01T15:21:23.865Z,9.10
2022-12-01T15:24:25.931Z,10.30
2022-12-01T15:27:36.100Z,11.50
2022-12-01T15:30:27.793Z,9.70
2022-12-01T15:33:26.959Z,5.50
2022-12-01T15:36:20.083Z,7.90
2022-12-01T15:39:10.653Z,7.00
2022-12-01T15:41:57.505Z,7.50
2022-12-01T15:45:00.842Z,8.20
2022-12-01T15:47:52.922Z,7.00
2022-12-01T15:50:49.612Z,6.80
2022-12-01T15:53:47.839Z,5.50
2022-12-01T15:56:41.207Z,7.20
2022-12-01T15:59:41.484Z,6.10
2022-12-01T16:02:33.826Z,6.40
2022-12-01T16:05:26.935Z,6.80
2022-12-01T16:08:38.143Z,6.20
2022-12-01T16:11:25.118Z,6.00
2022-12-01T16:14:25.008Z,7.40
2022-12-01T16:17:17.416Z,9.00
2022-12-01T16:20:22.278Z,7.40
2022-12-01T16:24:57.489Z,7.50
2022-12-01T16:27:54.090Z,11.20
2022-12-01T16:30:46.299Z,8.20
2022-12-01T16:36:26.908Z,6.90
2022-12-01T16:39:19.154Z,7.30
2022-12-01T16:42:12.125Z,6.00
2022-12-01T16:45:05.058Z,7.00
2022-12-01T16:50:27.049Z,6.20
2022-12-01T16:53:20.104Z,10.00
2022-12-01T16:56:15.128Z,8.00
2022-12-01T16:59:06.813Z,7.70
2022-12-01T17:01:59.235Z,6.90
2022-12-01T17:05:33.651Z,5.80
2022-12-01T17:08:25.450Z,10.30
2022-12-01T17:11:17.219Z,8.80
2022-12-01T17:14:09.934Z,7.00
2022-12-01T17:19:53.624Z,11.90
2022-12-01T17:22:45.277Z,9.00
2022-12-01T17:25:40.885Z,9.80
2022-12-01T17:28:33.229Z,9.30
2022-12-01T17:31:25.321Z,10.30
2022-12-01T17:34:16.836Z,6.90
2022-12-01T17:37:09.027Z,7.40
2022-12-01T17:39:56.059Z,6.30
2022-12-01T17:42:51.157Z,8.90
2022-12-01T17:45:43.218Z,9.40
2022-12-01T17:48:39.278Z,8.90
2022-12-01T17:51:31.006Z,7.30
2022-12-01T17:54:38.399Z,11.50
2022-12-01T17:57:30.156Z,8.50
2022-12-01T18:00:22.526Z,12.10
2022-12-01T18:06:06.601Z,8.80
2022-12-01T18:08:59.361Z,12.20
2022-12-01T18:11:51.410Z,12.10
2022-12-01T18:17:30.627Z,9.10
2022-12-01T18:20:22.210Z,9.60
2022-12-01T18:23:14.249Z,7.50
2022-12-01T18:26:10.781Z,6.80
2022-12-01T18:29:16.775Z,9.30
2022-12-01T18:34:55.415Z,9.50
2022-12-01T18:37:47.147Z,10.60
2022-12-01T18:40:39.675Z,10.30
2022-12-01T18:45:07.922Z,9.00
2022-12-01T18:47:59.875Z,13.40
2022-12-01T18:50:56.394Z,9.60
2022-12-01T18:53:46.226Z,9.10
2022-12-01T18:56:37.784Z,8.40
2022-12-01T18:59:29.890Z,13.00
2022-12-01T19:02:25.100Z,13.90
2022-12-01T19:05:18.828Z,10.40
2022-12-01T19:08:10.310Z,12.50
2022-12-01T19:11:03.528Z,11.10
2022-12-01T19:13:55.797Z,12.00
2022-12-01T19:16:48.849Z,12.00
2022-12-01T19:19:40.854Z,11.40
2022-12-01T19:24:01.554Z,13.30
2022-12-01T19:26:53.063Z,11.80
2022-12-01T19:29:40.126Z,13.60
2022-12-01T19:32:32.755Z,11.60
2022-12-01T19:35:24.844Z,12.90
2022-12-01T19:38:16.999Z,13.60
2022-12-01T19:41:04.953Z,11.10
2022-12-01T19:43:57.907Z,11.50
2022-12-01T19:48:23.587Z,10.30
2022-12-01T19:51:17.671Z,13.00
2022-12-01T19:54:13.884Z,11.70
2022-12-01T19:57:06.412Z,13.00
2022-12-01T19:59:58.262Z,13.40
2022-12-01T20:02:50.321Z,14.70
2022-12-01T20:05:42.538Z,9.90
2022-12-01T20:08:36.078Z,11.00
2022-12-01T20:11:29.985Z,11.40
2022-12-01T20:16:05.516Z,10.40
2022-12-01T20:18:59.908Z,7.40
2022-12-01T20:21:51.504Z,8.40
2022-12-01T20:24:43.307Z,9.30
2022-12-01T20:27:35.034Z,10.10
2022-12-01T20:33:02.901Z,13.10
2022-12-01T20:35:49.464Z,7.10
2022-12-01T20:38:41.568Z,11.70
2022-12-01T20:41:33.474Z,10.00
2022-12-01T20:44:25.450Z,13.40
2022-12-01T20:47:18.790Z,8.70
2022-12-01T20:50:10.857Z,9.20
2022-12-01T20:55:49.989Z,9.70
2022-12-01T21:00:17.592Z,11.80
2022-12-01T21:03:09.591Z,11.60
2022-12-01T21:06:01.574Z,12.30
2022-12-01T21:08:53.332Z,13.30
2022-12-01T21:12:08.210Z,10.20
2022-12-01T21:15:12.283Z,9.20
2022-12-01T21:18:00.822Z,13.20
2022-12-01T21:20:57.463Z,10.30
2022-12-01T21:23:53.506Z,10.10
2022-12-01T21:29:22.859Z,12.40
2022-12-01T21:32:14.795Z,6.50
2022-12-01T21:35:17.380Z,8.70
2022-12-01T21:38:12.077Z,10.70
2022-12-01T21:41:09.466Z,9.40
2022-12-01T21:44:02.988Z,9.50
2022-12-01T21:46:56.782Z,11.60
2022-12-01T21:49:51.920Z,9.20
2022-12-01T21:52:44.796Z,10.00
2022-12-01T21:58:34.572Z,11.20
2022-12-01T22:01:27.870Z,8.50
2022-12-01T22:04:20.904Z,9.70
2022-12-01T22:07:14.411Z,11.80
2022-12-01T22:10:26.236Z,12.20
2022-12-01T22:13:18.721Z,8.90
2022-12-01T22:16:40.343Z,11.70
2022-12-01T22:20:44.227Z,8.90
2022-12-01T22:23:35.672Z,11.40
2022-12-01T22:26:27.541Z,12.10
2022-12-01T22:29:28.435Z,12.50
2022-12-01T22:32:32.481Z,9.00
2022-12-01T22:35:24.628Z,10.70
2022-12-01T22:38:21.233Z,11.70
2022-12-01T22:41:14.229Z,12.80
2022-12-01T22:44:09.917Z,10.00
2022-12-01T22:47:02.774Z,10.20
2022-12-01T22:49:54.257Z,8.80
2022-12-01T22:52:45.936Z,9.40
2022-12-01T22:55:37.829Z,13.00
2022-12-01T22:58:32.016Z,14.80
2022-12-01T23:01:23.804Z,8.70
2022-12-01T23:04:24.287Z,9.30
2022-12-01T23:07:15.910Z,11.80
2022-12-01T23:10:18.680Z,15.20
2022-12-01T23:13:28.511Z,8.20
2022-12-01T23:16:15.760Z,12.00
2022-12-01T23:19:09.750Z,10.40
2022-12-01T23:23:20.892Z,12.80
2022-12-01T23:26:13.141Z,10.20
2022-12-01T23:29:04.772Z,11.50
2022-12-01T23:31:56.407Z,14.20
2022-12-01T23:34:49.447Z,12.20
2022-12-01T23:37:42.521Z,9.80
2022-12-01T23:40:35.148Z,10.10
2022-12-01T23:43:28.180Z,11.90
2022-12-01T23:46:21.660Z,13.20
2022-12-01T23:51:52.881Z,15.40
2022-12-01T23:54:45.378Z,14.10
2022-12-01T23:57:37.526Z,17.90
